createdAt,value
2019-01-22T00:00:51.030Z,75.56
2019-01-22T00:01:51.055Z,75.35
2019-01-22T00:02:51.010Z,75.46
2019-01-22T00:03:51.037Z,75.56
2019-01-22T00:04:50.998Z,75.56
2019-01-22T00:05:50.979Z,75.56
2019-01-22T00:06:50.989Z,75.67
2019-01-22T00:07:50.954Z,76.19
2019-01-22T00:08:51.002Z,75.98
2019-01-22T00:09:50.933Z,75.59
2019-01-22T00:10:50.924Z,75.46
2019-01-22T00:11:50.937Z,75.67
2019-01-22T00:12:50.927Z,75.59
2019-01-22T00:13:50.900Z,75.91
2019-01-22T00:14:50.901Z,75.91
2019-01-22T00:15:50.884Z,76.15
2019-01-22T00:16:51.017Z,76.65
2019-01-22T00:17:50.860Z,76.54
2019-01-22T00:18:50.885Z,76.33
2019-01-22T00:19:50.877Z,77.59
2019-01-22T00:20:50.846Z,77.38
2019-01-22T00:21:50.810Z,76.75
2019-01-22T00:22:50.799Z,76.57
2019-01-22T00:23:50.795Z,76.65
2019-01-22T00:24:50.772Z,76.37
2019-01-22T00:25:50.819Z,76.79
2019-01-22T00:26:50.754Z,77.45
2019-01-22T00:27:50.749Z,77.62
2019-01-22T00:28:50.766Z,77.42
2019-01-22T00:29:50.727Z,77.76
2019-01-22T00:30:50.715Z,77.52
2019-01-22T00:31:50.747Z,77.42
2019-01-22T00:32:50.691Z,76.89
2019-01-22T00:33:50.689Z,77.42
2019-01-22T00:34:50.678Z,77.42
2019-01-22T00:35:50.701Z,77.21
2019-01-22T00:36:50.640Z,77.80
2019-01-22T00:37:50.732Z,77.42
2019-01-22T00:38:50.628Z,77.48
2019-01-22T00:39:50.611Z,76.65
2019-01-22T00:40:50.607Z,76.65
2019-01-22T00:41:50.605Z,76.54
2019-01-22T00:42:50.609Z,76.23
2019-01-22T00:43:50.571Z,75.70
2019-01-22T00:44:50.561Z,76.12
2019-01-22T00:45:50.565Z,76.12
2019-01-22T00:46:50.538Z,76.23
2019-01-22T00:47:50.588Z,75.91
2019-01-22T00:48:50.518Z,76.15
2019-01-22T00:49:50.508Z,76.12
2019-01-22T00:50:50.498Z,76.54
2019-01-22T00:51:50.488Z,76.68
2019-01-22T00:52:50.521Z,76.01
2019-01-22T00:53:50.466Z,76.05
2019-01-22T00:54:50.467Z,76.54
2019-01-22T00:55:50.442Z,76.37
2019-01-22T00:56:50.435Z,76.15
2019-01-22T00:57:50.432Z,76.26
2019-01-22T00:58:50.442Z,76.89
2019-01-22T00:59:50.402Z,77.62
2019-01-22T01:00:50.441Z,76.54
2019-01-22T01:01:50.385Z,75.91
2019-01-22T01:02:50.367Z,76.26
2019-01-22T01:03:50.385Z,76.43
2019-01-22T01:04:50.367Z,76.23
2019-01-22T01:05:50.350Z,76.33
2019-01-22T01:06:50.334Z,76.12
2019-01-22T01:07:50.309Z,75.70
2019-01-22T01:08:50.349Z,75.91
2019-01-22T01:09:50.306Z,75.38
2019-01-22T01:10:50.283Z,75.17
2019-01-22T01:11:50.275Z,74.96
2019-01-22T01:12:50.264Z,74.96
2019-01-22T01:13:50.255Z,75.38
2019-01-22T01:14:50.276Z,74.96
2019-01-22T01:15:50.230Z,74.22
2019-01-22T01:16:50.222Z,75.38
2019-01-22T01:17:50.209Z,75.70
2019-01-22T01:18:50.197Z,75.70
2019-01-22T01:19:50.283Z,76.01
2019-01-22T01:20:50.182Z,75.70
2019-01-22T01:21:50.168Z,75.59
2019-01-22T01:22:50.160Z,75.38
2019-01-22T01:23:50.149Z,74.33
2019-01-22T01:24:50.133Z,75.38
2019-01-22T01:25:50.142Z,76.23
2019-01-22T01:26:50.123Z,75.49
2019-01-22T01:27:50.104Z,75.70
2019-01-22T01:28:50.116Z,75.38
2019-01-22T01:29:50.083Z,75.70
2019-01-22T01:30:50.071Z,75.52
2019-01-22T01:31:50.084Z,75.70
2019-01-22T01:32:50.073Z,75.81
2019-01-22T01:33:50.034Z,75.52
2019-01-22T01:34:50.023Z,75.95
2019-01-22T01:35:50.020Z,76.23
2019-01-22T01:36:50.060Z,76.01
2019-01-22T01:37:49.995Z,75.28
2019-01-22T01:38:49.978Z,75.49
2019-01-22T01:39:49.977Z,75.38
2019-01-22T01:40:49.963Z,75.49
2019-01-22T01:41:49.961Z,74.86
2019-01-22T01:42:49.971Z,74.54
2019-01-22T01:43:49.933Z,74.96
2019-01-22T01:44:49.915Z,75.28
2019-01-22T01:45:49.917Z,75.63
2019-01-22T01:46:49.895Z,75.84
2019-01-22T01:47:49.904Z,75.95
2019-01-22T01:48:49.877Z,76.26
2019-01-22T01:49:49.867Z,75.95
2019-01-22T01:50:49.848Z,76.05
2019-01-22T01:51:49.845Z,76.05
2019-01-22T01:52:49.904Z,75.42
2019-01-22T01:53:49.834Z,75.42
2019-01-22T01:54:49.809Z,75.52
2019-01-22T01:55:49.792Z,75.28
2019-01-22T01:56:49.784Z,75.31
2019-01-22T01:57:49.776Z,75.07
2019-01-22T01:58:49.790Z,74.65
2019-01-22T01:59:49.753Z,74.86
2019-01-22T02:00:49.744Z,75.28
2019-01-22T02:01:49.735Z,75.17
2019-01-22T02:02:49.746Z,75.70
2019-01-22T02:03:49.744Z,76.15
2019-01-22T02:04:49.703Z,76.26
2019-01-22T02:05:49.694Z,75.95
2019-01-22T02:06:49.682Z,75.59
2019-01-22T02:07:49.665Z,75.84
2019-01-22T02:08:49.660Z,75.95
2019-01-22T02:09:49.666Z,76.15
2019-01-22T02:10:49.644Z,76.47
2019-01-22T02:11:49.625Z,76.37
2019-01-22T02:12:49.617Z,75.49
2019-01-22T02:13:49.617Z,74.96
2019-01-22T02:14:49.645Z,74.22
2019-01-22T02:15:49.581Z,75.38
2019-01-22T02:16:49.575Z,75.28
2019-01-22T02:17:49.557Z,75.17
2019-01-22T02:18:49.559Z,74.33
2019-01-22T02:19:49.547Z,74.65
2019-01-22T02:20:49.552Z,75.38
2019-01-22T02:21:49.514Z,75.17
2019-01-22T02:22:49.522Z,75.21
2019-01-22T02:23:49.494Z,74.76
2019-01-22T02:24:49.487Z,74.96
2019-01-22T02:25:49.502Z,74.65
2019-01-22T02:26:49.464Z,74.33
2019-01-22T02:27:49.460Z,74.65
2019-01-22T02:28:49.449Z,74.54
2019-01-22T02:29:49.436Z,74.76
2019-01-22T02:30:49.470Z,74.96
2019-01-22T02:31:49.462Z,75.07
2019-01-22T02:32:49.397Z,75.42
2019-01-22T02:33:49.388Z,75.07
2019-01-22T02:34:49.377Z,75.52
2019-01-22T02:35:49.371Z,75.70
2019-01-22T02:36:49.354Z,75.38
2019-01-22T02:37:49.372Z,75.42
2019-01-22T02:38:49.331Z,75.38
2019-01-22T02:39:49.333Z,74.96
2019-01-22T02:40:49.342Z,74.76
2019-01-22T02:41:49.321Z,74.96
2019-01-22T02:42:49.293Z,74.96
2019-01-22T02:43:49.355Z,74.30
2019-01-22T02:44:49.272Z,74.19
2019-01-22T02:45:49.265Z,73.67
2019-01-22T02:46:49.257Z,74.40
2019-01-22T02:47:49.235Z,74.93
2019-01-22T02:48:49.233Z,74.76
2019-01-22T02:49:49.276Z,74.86
2019-01-22T02:50:49.205Z,75.07
2019-01-22T02:51:49.195Z,74.72
2019-01-22T02:52:49.202Z,75.04
2019-01-22T02:53:49.182Z,74.30
2019-01-22T02:54:49.164Z,74.40
2019-01-22T02:55:49.204Z,74.40
2019-01-22T02:56:49.138Z,74.09
2019-01-22T02:57:49.180Z,73.88
2019-01-22T02:58:49.124Z,73.77
2019-01-22T02:59:49.112Z,73.77
2019-01-22T03:00:49.097Z,73.77
2019-01-22T03:01:49.137Z,74.40
2019-01-22T03:02:49.078Z,73.25
2019-01-22T03:03:49.098Z,73.43
2019-01-22T03:04:49.050Z,74.30
2019-01-22T03:05:49.042Z,73.46
2019-01-22T03:06:49.046Z,74.02
2019-01-22T03:07:49.037Z,74.22
2019-01-22T03:08:49.048Z,75.28
2019-01-22T03:09:48.999Z,74.96
2019-01-22T03:10:48.990Z,75.07
2019-01-22T03:11:48.975Z,74.02
2019-01-22T03:12:48.963Z,74.33
2019-01-22T03:13:48.983Z,74.96
2019-01-22T03:14:48.952Z,75.07
2019-01-22T03:15:48.940Z,74.65
2019-01-22T03:16:48.924Z,75.38
2019-01-22T03:17:48.908Z,74.93
2019-01-22T03:18:48.900Z,74.30
2019-01-22T03:19:48.921Z,74.16
2019-01-22T03:20:48.885Z,74.16
2019-01-22T03:21:48.876Z,73.95
2019-01-22T03:22:48.876Z,73.00
2019-01-22T03:23:48.848Z,72.90
2019-01-22T03:24:48.865Z,73.43
2019-01-22T03:25:48.833Z,73.22
2019-01-22T03:26:48.814Z,73.11
2019-01-22T03:27:48.805Z,73.95
2019-01-22T03:28:48.794Z,73.00
2019-01-22T03:29:48.804Z,73.43
2019-01-22T03:30:48.785Z,73.60
2019-01-22T03:31:48.765Z,73.11
2019-01-22T03:32:48.781Z,72.90
2019-01-22T03:33:48.748Z,73.08
2019-01-22T03:34:48.735Z,73.63
2019-01-22T03:35:48.727Z,73.22
2019-01-22T03:36:48.734Z,72.66
2019-01-22T03:37:48.695Z,73.28
2019-01-22T03:38:48.686Z,73.32
2019-01-22T03:39:48.679Z,72.55
2019-01-22T03:40:48.667Z,72.24
2019-01-22T03:41:48.711Z,72.24
2019-01-22T03:42:48.655Z,72.45
2019-01-22T03:43:48.628Z,72.34
2019-01-22T03:44:51.267Z,71.64
2019-01-22T03:45:48.615Z,71.64
2019-01-22T03:46:48.599Z,72.06
2019-01-22T03:47:48.648Z,72.48
2019-01-22T03:48:48.574Z,72.90
2019-01-22T03:49:48.568Z,72.90
2019-01-22T03:50:48.552Z,73.63
2019-01-22T03:51:48.545Z,73.22
2019-01-22T03:52:48.544Z,73.43
2019-01-22T03:53:53.692Z,72.80
2019-01-22T03:54:49.563Z,73.25
2019-01-22T03:55:48.501Z,73.67
2019-01-22T03:56:48.491Z,73.25
2019-01-22T03:57:48.778Z,73.77
2019-01-22T03:58:48.468Z,73.67
2019-01-22T03:59:48.470Z,73.14
2019-01-22T04:00:48.480Z,73.35
2019-01-22T04:01:48.438Z,73.25
2019-01-22T04:02:48.419Z,73.32
2019-01-22T04:03:48.429Z,72.93
2019-01-22T04:04:48.405Z,73.22
2019-01-22T04:05:48.419Z,72.90
2019-01-22T04:06:48.392Z,72.62
2019-01-22T04:07:48.366Z,72.62
2019-01-22T04:08:48.381Z,72.83
2019-01-22T04:09:48.356Z,73.04
2019-01-22T04:10:48.344Z,73.04
2019-01-22T04:11:48.323Z,73.25
2019-01-22T04:12:48.316Z,73.25
2019-01-22T04:13:48.333Z,73.25
2019-01-22T04:14:48.304Z,72.93
2019-01-22T04:15:48.297Z,73.04
2019-01-22T04:16:48.303Z,73.07
2019-01-22T04:17:48.262Z,73.46
2019-01-22T04:18:48.281Z,73.49
2019-01-22T04:19:48.239Z,73.91
2019-01-22T04:20:48.235Z,74.33
2019-01-22T04:21:48.242Z,73.60
2019-01-22T04:22:48.203Z,74.16
2019-01-22T04:23:48.209Z,74.47
2019-01-22T04:24:48.239Z,74.47
2019-01-22T04:25:48.175Z,74.16
2019-01-22T04:26:48.167Z,75.07
2019-01-22T04:27:48.156Z,74.12
2019-01-22T04:28:48.149Z,74.16
2019-01-22T04:29:48.151Z,74.33
2019-01-22T04:30:48.159Z,74.89
2019-01-22T04:31:48.123Z,74.26
2019-01-22T04:32:48.125Z,74.47
2019-01-22T04:33:48.092Z,74.47
2019-01-22T04:34:48.086Z,74.68
2019-01-22T04:35:48.072Z,74.37
2019-01-22T04:36:48.056Z,75.35
2019-01-22T04:37:48.080Z,75.31
2019-01-22T04:38:48.113Z,75.45
2019-01-22T04:39:48.057Z,75.67
2019-01-22T04:40:48.010Z,76.19
2019-01-22T04:41:48.031Z,76.82
2019-01-22T04:42:47.993Z,77.49
2019-01-22T04:43:47.982Z,77.59
2019-01-22T04:44:48.032Z,77.49
2019-01-22T04:45:47.963Z,77.38
2019-01-22T04:46:47.978Z,77.70
2019-01-22T04:47:47.940Z,77.59
2019-01-22T04:48:47.928Z,77.17
2019-01-22T04:49:47.916Z,77.59
2019-01-22T04:50:47.906Z,77.59
2019-01-22T04:51:47.929Z,77.59
2019-01-22T04:52:47.892Z,77.49
2019-01-22T04:53:47.898Z,77.73
2019-01-22T04:54:47.908Z,77.52
2019-01-22T04:55:47.850Z,77.63
2019-01-22T04:56:47.873Z,77.63
2019-01-22T04:57:47.863Z,77.52
2019-01-22T04:58:47.816Z,78.16
2019-01-22T04:59:47.814Z,78.05
2019-01-22T05:00:47.797Z,77.84
2019-01-22T05:01:47.791Z,77.63
2019-01-22T05:02:47.822Z,78.05
2019-01-22T05:03:47.773Z,78.22
2019-01-22T05:04:47.752Z,77.28
2019-01-22T05:05:47.745Z,76.86
2019-01-22T05:06:47.777Z,76.61
2019-01-22T05:07:47.728Z,75.98
2019-01-22T05:08:47.785Z,76.09
2019-01-22T05:09:47.712Z,75.98
2019-01-22T05:10:47.691Z,76.23
2019-01-22T05:11:47.698Z,76.86
2019-01-22T05:12:47.724Z,77.94
2019-01-22T05:13:47.666Z,77.63
2019-01-22T05:14:47.650Z,77.38
2019-01-22T05:15:47.635Z,77.49
2019-01-22T05:16:47.625Z,76.96
2019-01-22T05:17:47.630Z,77.91
2019-01-22T05:18:47.633Z,76.33
2019-01-22T05:19:47.598Z,76.43
2019-01-22T05:20:47.587Z,75.81
2019-01-22T05:21:47.582Z,76.19
2019-01-22T05:22:47.557Z,76.01
2019-01-22T05:23:47.608Z,76.01
2019-01-22T05:24:47.540Z,76.75
2019-01-22T05:25:47.531Z,76.68
2019-01-22T05:26:47.522Z,76.36
2019-01-22T05:27:47.521Z,76.68
2019-01-22T05:28:47.507Z,76.57
2019-01-22T05:29:47.512Z,77.66
2019-01-22T05:30:47.479Z,77.87
2019-01-22T05:31:47.464Z,77.77
2019-01-22T05:32:47.502Z,77.98
2019-01-22T05:33:47.509Z,78.05
2019-01-22T05:34:47.433Z,77.52
2019-01-22T05:35:47.423Z,77.00
2019-01-22T05:36:47.414Z,76.65
2019-01-22T05:37:47.400Z,76.26
2019-01-22T05:38:47.388Z,77.20
2019-01-22T05:39:47.401Z,77.63
2019-01-22T05:40:47.368Z,77.42
2019-01-22T05:41:47.352Z,76.57
2019-01-22T05:42:47.355Z,77.00
2019-01-22T05:43:47.330Z,76.68
2019-01-22T05:44:47.362Z,76.68
2019-01-22T05:45:47.312Z,77.52
2019-01-22T05:46:47.299Z,76.57
2019-01-22T05:47:47.289Z,76.15
2019-01-22T05:48:47.275Z,76.47
2019-01-22T05:49:47.298Z,76.47
2019-01-22T05:50:47.281Z,77.94
2019-01-22T05:51:47.327Z,77.00
2019-01-22T05:52:47.239Z,77.45
2019-01-22T05:53:47.229Z,77.63
2019-01-22T05:54:47.224Z,76.57
2019-01-22T05:55:47.210Z,76.26
2019-01-22T05:56:47.207Z,76.68
2019-01-22T05:57:47.202Z,76.89
2019-01-22T05:58:47.168Z,77.28
2019-01-22T05:59:48.106Z,76.65
2019-01-22T06:00:47.169Z,75.91
2019-01-22T06:01:47.255Z,75.81
2019-01-22T06:02:47.133Z,75.63
2019-01-22T06:03:47.169Z,75.73
2019-01-22T06:04:47.148Z,76.26
2019-01-22T06:05:47.161Z,76.89
2019-01-22T06:06:47.091Z,76.23
2019-01-22T06:07:47.085Z,75.59
2019-01-22T06:08:47.072Z,76.23
2019-01-22T06:09:47.068Z,75.70
2019-01-22T06:10:47.050Z,75.81
2019-01-22T06:11:47.061Z,75.07
2019-01-22T06:12:47.021Z,74.65
2019-01-22T06:13:47.027Z,75.03
2019-01-22T06:14:47.001Z,75.07
2019-01-22T06:15:46.994Z,75.17
2019-01-22T06:16:47.005Z,75.07
2019-01-22T06:17:46.980Z,75.91
2019-01-22T06:18:46.996Z,75.38
2019-01-22T06:19:46.952Z,75.13
2019-01-22T06:20:46.946Z,75.03
2019-01-22T06:21:46.928Z,75.03
2019-01-22T06:22:46.915Z,75.07
2019-01-22T06:23:46.901Z,75.49
2019-01-22T06:24:46.924Z,75.07
2019-01-22T06:25:49.632Z,75.35
2019-01-22T06:26:46.867Z,74.93
2019-01-22T06:27:46.863Z,75.45
2019-01-22T06:28:46.852Z,74.82
2019-01-22T06:29:46.868Z,74.05
2019-01-22T06:30:46.829Z,73.74
2019-01-22T06:31:46.821Z,73.32
2019-01-22T06:32:46.826Z,73.42
2019-01-22T06:33:46.806Z,74.02
2019-01-22T06:34:46.810Z,73.10
2019-01-22T06:35:46.785Z,73.32
2019-01-22T06:36:46.765Z,73.52
2019-01-22T06:37:46.761Z,73.91
2019-01-22T06:38:46.742Z,74.26
2019-01-22T06:39:46.733Z,72.65
2019-01-22T06:40:46.744Z,72.44
2019-01-22T06:41:46.758Z,72.79
2019-01-22T06:42:46.710Z,73.00
2019-01-22T06:43:46.683Z,72.86
2019-01-22T06:44:46.678Z,73.10
2019-01-22T06:45:46.706Z,73.91
2019-01-22T06:46:46.678Z,73.07
2019-01-22T06:47:46.654Z,73.07
2019-01-22T06:48:46.691Z,73.74
2019-01-22T06:49:46.626Z,74.37
2019-01-22T06:50:46.621Z,73.60
2019-01-22T06:51:46.602Z,73.18
2019-01-22T06:52:46.599Z,73.63
2019-01-22T06:53:46.586Z,74.26
2019-01-22T06:54:46.593Z,74.47
2019-01-22T06:55:46.568Z,75.10
2019-01-22T06:56:46.549Z,74.16
2019-01-22T06:57:46.531Z,74.05
2019-01-22T06:58:46.528Z,73.94
2019-01-22T06:59:46.512Z,73.49
2019-01-22T07:00:46.528Z,73.84
2019-01-22T07:01:46.494Z,72.97
2019-01-22T07:02:46.478Z,73.21
2019-01-22T07:03:46.474Z,73.18
2019-01-22T07:04:46.460Z,72.47
2019-01-22T07:05:46.473Z,73.18
2019-01-22T07:06:46.438Z,72.89
2019-01-22T07:07:46.436Z,73.42
2019-01-22T07:08:46.412Z,73.32
2019-01-22T07:09:46.412Z,73.84
2019-01-22T07:10:46.440Z,74.37
2019-01-22T07:11:46.387Z,73.84
2019-01-22T07:12:46.379Z,73.63
2019-01-22T07:13:46.361Z,74.16
2019-01-22T07:14:46.355Z,74.44
2019-01-22T07:15:46.337Z,74.33
2019-01-22T07:16:46.383Z,73.28
2019-01-22T07:17:46.351Z,72.44
2019-01-22T07:18:46.319Z,73.18
2019-01-22T07:19:46.293Z,72.93
2019-01-22T07:20:46.288Z,72.55
2019-01-22T07:21:46.333Z,72.93
2019-01-22T07:22:46.272Z,72.23
2019-01-22T07:23:46.256Z,72.13
2019-01-22T07:24:46.842Z,72.23
2019-01-22T07:25:46.263Z,72.65
2019-01-22T07:26:46.497Z,72.75
2019-01-22T07:27:46.242Z,72.44
2019-01-22T07:28:46.206Z,73.18
2019-01-22T07:29:46.204Z,72.65
2019-01-22T07:30:46.184Z,72.33
2019-01-22T07:31:46.192Z,72.33
2019-01-22T07:32:46.204Z,74.02
2019-01-22T07:33:46.148Z,73.49
2019-01-22T07:34:46.137Z,73.81
2019-01-22T07:35:46.127Z,73.07
2019-01-22T07:36:46.121Z,73.07
2019-01-22T07:37:46.099Z,72.93
2019-01-22T07:38:46.135Z,71.88
2019-01-22T07:39:46.170Z,71.56
2019-01-22T07:40:46.078Z,71.78
2019-01-22T07:41:46.060Z,72.30
2019-01-22T07:42:46.047Z,72.30
2019-01-22T07:43:46.041Z,71.88
2019-01-22T07:44:46.022Z,71.78
2019-01-22T07:45:46.087Z,71.95
2019-01-22T07:46:46.014Z,71.98
2019-01-22T07:47:45.993Z,73.14
2019-01-22T07:48:45.979Z,72.72
2019-01-22T07:49:45.972Z,72.75
2019-01-22T07:50:45.981Z,73.77
2019-01-22T07:51:45.982Z,72.55
2019-01-22T07:52:45.938Z,73.60
2019-01-22T07:53:45.927Z,73.70
2019-01-22T07:54:45.931Z,73.39
2019-01-22T07:55:45.919Z,72.86
2019-01-22T07:56:45.915Z,72.20
2019-01-22T07:57:45.879Z,73.04
2019-01-22T07:58:45.872Z,72.30
2019-01-22T07:59:45.869Z,72.20
2019-01-22T08:00:45.872Z,72.62
2019-01-22T08:01:45.925Z,73.46
2019-01-22T08:02:45.836Z,72.62
2019-01-22T08:03:45.819Z,73.14
2019-01-22T08:04:45.811Z,72.30
2019-01-22T08:05:45.803Z,72.30
2019-01-22T08:06:45.790Z,71.67
2019-01-22T08:07:45.805Z,71.36
2019-01-22T08:08:45.765Z,71.46
2019-01-22T08:09:45.755Z,71.88
2019-01-22T08:10:45.740Z,72.62
2019-01-22T08:11:45.735Z,72.20
2019-01-22T08:12:45.745Z,72.09
2019-01-22T08:13:45.725Z,72.51
2019-01-22T08:14:45.700Z,72.30
2019-01-22T08:15:45.720Z,72.09
2019-01-22T08:16:45.675Z,72.51
2019-01-22T08:17:45.679Z,72.72
2019-01-22T08:18:45.679Z,72.83
2019-01-22T08:19:45.649Z,73.04
2019-01-22T08:20:45.626Z,72.72
2019-01-22T08:21:45.618Z,73.35
2019-01-22T08:22:45.616Z,72.51
2019-01-22T08:23:45.625Z,72.09
2019-01-22T08:24:45.584Z,73.22
2019-01-22T08:25:45.577Z,71.98
2019-01-22T08:26:45.564Z,71.11
2019-01-22T08:27:45.577Z,70.80
2019-01-22T08:28:45.581Z,70.80
2019-01-22T08:29:45.551Z,70.87
2019-01-22T08:30:45.529Z,70.80
2019-01-22T08:31:45.515Z,71.22
2019-01-22T08:32:45.503Z,71.75
2019-01-22T08:33:45.921Z,71.71
2019-01-22T08:34:45.558Z,71.64
2019-01-22T08:35:45.486Z,71.33
2019-01-22T08:36:45.457Z,72.62
2019-01-22T08:37:45.451Z,72.16
2019-01-22T08:38:45.434Z,72.30
2019-01-22T08:39:45.422Z,72.27
2019-01-22T08:40:45.445Z,71.25
2019-01-22T08:41:45.397Z,70.80
2019-01-22T08:42:45.389Z,71.22
2019-01-22T08:43:45.377Z,71.43
2019-01-22T08:44:45.396Z,70.66
2019-01-22T08:45:45.358Z,70.56
2019-01-22T08:46:45.404Z,69.90
2019-01-22T08:47:45.332Z,69.79
2019-01-22T18:42:06.408Z,68.02
2019-01-22T18:42:37.116Z,67.18
2019-01-22T18:43:37.108Z,67.60
2019-01-22T18:44:37.109Z,67.49
2019-01-22T18:45:37.088Z,67.84
2019-01-22T18:46:37.100Z,67.84
2019-01-22T18:47:37.067Z,68.37
2019-01-22T18:48:37.050Z,68.26
2019-01-22T18:49:37.046Z,68.78
2019-01-22T18:50:37.029Z,68.05
2019-01-22T18:51:37.045Z,67.74
2019-01-22T18:52:37.004Z,68.26
2019-01-22T18:53:36.999Z,67.42
2019-01-22T18:54:36.990Z,68.12
2019-01-22T18:55:36.977Z,67.94
2019-01-22T18:56:37.043Z,67.39
2019-01-22T18:57:36.954Z,67.81
2019-01-22T18:58:36.947Z,67.94
2019-01-22T18:59:37.083Z,67.91
2019-01-22T19:00:36.923Z,67.84
2019-01-22T19:01:37.050Z,68.23
2019-01-22T19:02:36.939Z,68.26
2019-01-22T19:03:36.984Z,67.84
2019-01-22T19:04:36.879Z,68.05
2019-01-22T19:05:36.863Z,68.15
2019-01-22T19:06:36.852Z,68.89
2019-01-22T19:07:37.028Z,69.20
2019-01-22T19:08:36.829Z,69.45
2019-01-22T19:09:36.818Z,68.99
2019-01-22T19:10:36.813Z,69.31
2019-01-22T19:11:36.799Z,68.68
2019-01-22T19:12:36.860Z,69.20
2019-01-22T19:13:36.783Z,68.57
2019-01-22T19:14:36.767Z,68.92
2019-01-22T19:15:36.757Z,68.89
2019-01-22T19:16:36.886Z,68.99
2019-01-22T19:17:36.744Z,68.89
2019-01-22T19:18:37.000Z,69.41
2019-01-22T19:19:36.713Z,68.89
2019-01-22T19:20:36.702Z,69.10
2019-01-22T19:21:36.696Z,68.15
2019-01-22T19:22:36.796Z,68.68
2019-01-22T19:23:36.700Z,68.78
2019-01-22T19:24:36.776Z,68.37
2019-01-22T19:25:36.659Z,68.26
2019-01-22T19:26:36.641Z,68.37
2019-01-22T19:27:36.626Z,68.78
2019-01-22T19:28:36.643Z,68.37
2019-01-22T19:29:36.604Z,68.37
2019-01-22T19:30:36.588Z,68.05
2019-01-22T19:31:36.587Z,68.26
2019-01-22T19:32:36.571Z,68.15
2019-01-22T19:33:36.597Z,68.26
2019-01-22T19:34:36.570Z,68.37
2019-01-22T19:35:36.568Z,68.26
2019-01-22T19:36:36.527Z,69.02
2019-01-22T19:37:36.522Z,68.08
2019-01-22T19:38:36.677Z,68.47
2019-01-22T19:39:36.521Z,68.37
2019-01-22T19:40:36.530Z,68.05
2019-01-22T19:41:36.497Z,68.47
2019-01-22T19:42:36.465Z,68.47
2019-01-22T19:43:36.445Z,68.37
2019-01-22T19:44:36.444Z,68.78
2019-01-22T19:45:36.437Z,68.15
2019-01-22T19:46:36.441Z,68.60
2019-01-22T19:47:36.566Z,68.05
2019-01-22T19:48:36.391Z,68.60
2019-01-22T19:49:36.391Z,68.50
2019-01-22T19:50:36.401Z,68.60
2019-01-22T19:51:36.367Z,68.60
2019-01-22T19:52:36.354Z,68.82
2019-01-22T19:53:36.448Z,68.40
2019-01-22T19:54:36.360Z,68.50
2019-01-22T19:55:36.319Z,68.08
2019-01-22T19:56:36.306Z,68.15
2019-01-22T19:57:40.992Z,68.40
2019-01-22T19:58:37.336Z,68.08
2019-01-22T19:59:36.270Z,68.29
2019-01-22T20:00:36.268Z,67.97
2019-01-22T20:01:36.270Z,68.29
2019-01-22T20:02:36.240Z,67.45
2019-01-22T20:03:36.229Z,68.08
2019-01-22T20:04:36.271Z,67.77
2019-01-22T20:05:36.207Z,68.08
2019-01-22T20:06:36.200Z,68.40
2019-01-22T20:07:36.190Z,68.60
2019-01-22T20:08:36.188Z,68.32
2019-01-22T20:09:36.172Z,68.82
2019-01-22T20:10:36.205Z,68.53
2019-01-22T20:11:36.162Z,69.16
2019-01-22T20:12:36.186Z,69.40
2019-01-22T20:13:36.146Z,69.82
2019-01-22T20:14:36.297Z,69.19
2019-01-22T20:15:36.107Z,68.95
2019-01-22T20:16:36.118Z,69.16
2019-01-22T20:17:36.082Z,68.88
2019-01-22T20:18:36.068Z,68.74
2019-01-22T20:19:36.231Z,69.16
2019-01-22T20:20:36.045Z,69.40
2019-01-22T20:21:36.083Z,69.48
2019-01-22T20:22:36.024Z,68.77
2019-01-22T20:23:36.270Z,69.19
2019-01-22T20:24:36.009Z,68.98
2019-01-22T20:25:36.188Z,68.77
2019-01-22T20:26:35.980Z,68.98
2019-01-22T20:27:36.006Z,68.21
2019-01-22T20:28:35.985Z,68.88
2019-01-22T20:29:36.028Z,68.77
2019-01-22T20:30:36.089Z,69.19
2019-01-22T20:31:35.931Z,69.33
2019-01-22T20:32:35.920Z,69.85
2019-01-22T20:33:35.949Z,69.82
2019-01-22T20:34:36.025Z,69.93
2019-01-22T20:35:35.888Z,68.88
2019-01-22T20:36:35.875Z,69.40
2019-01-22T20:37:35.861Z,68.88
2019-01-22T20:38:36.070Z,68.88
2019-01-22T20:39:35.852Z,69.40
2019-01-22T20:40:35.995Z,69.51
2019-01-22T20:41:35.826Z,69.40
2019-01-22T20:42:35.803Z,69.19
2019-01-22T20:43:35.800Z,70.00
2019-01-22T20:44:36.096Z,69.16
2019-01-22T20:45:35.776Z,68.63
2019-01-22T20:46:35.763Z,68.66
2019-01-22T20:47:35.756Z,68.56
2019-01-22T20:48:35.738Z,68.21
2019-01-22T20:49:35.745Z,68.66
2019-01-22T20:50:35.775Z,69.09
2019-01-22T20:51:35.723Z,69.16
2019-01-22T20:52:35.700Z,68.95
2019-01-22T20:53:35.696Z,69.09
2019-01-22T20:54:35.687Z,68.98
2019-01-22T20:55:35.708Z,69.33
2019-01-22T20:56:35.660Z,68.38
2019-01-22T20:57:35.643Z,69.43
2019-01-22T20:58:40.497Z,69.19
2019-01-22T20:59:36.617Z,68.91
2019-01-22T21:00:35.645Z,69.33
2019-01-22T21:01:35.828Z,70.17
2019-01-22T21:02:35.589Z,69.96
2019-01-22T21:03:35.576Z,70.28
2019-01-22T21:04:35.567Z,70.28
2019-01-22T21:05:35.558Z,69.43
2019-01-22T21:06:35.732Z,69.01
2019-01-22T21:07:35.539Z,69.43
2019-01-22T21:08:35.522Z,69.33
2019-01-22T21:09:35.518Z,69.23
2019-01-22T21:10:35.528Z,69.33
2019-01-22T21:11:35.559Z,69.33
2019-01-22T21:12:35.475Z,69.75
2019-01-22T21:13:35.486Z,69.96
2019-01-22T21:14:35.461Z,70.28
2019-01-22T21:15:35.455Z,69.96
2019-01-22T21:16:35.633Z,69.75
2019-01-22T21:17:35.481Z,70.28
2019-01-22T21:18:35.427Z,70.38
2019-01-22T21:19:35.416Z,69.85
2019-01-22T21:20:35.415Z,69.64
2019-01-22T21:21:35.374Z,69.75
2019-01-22T21:22:35.374Z,69.99
2019-01-22T21:23:35.397Z,70.51
2019-01-22T21:24:35.368Z,70.41
2019-01-22T21:25:35.335Z,69.89
2019-01-22T21:26:35.374Z,70.62
2019-01-22T21:27:35.319Z,70.83
2019-01-22T21:28:35.347Z,70.86
2019-01-22T21:29:35.304Z,70.83
2019-01-22T21:30:35.282Z,70.55
2019-01-22T21:31:35.274Z,70.20
2019-01-22T21:32:35.301Z,71.08
2019-01-22T21:33:35.253Z,71.28
2019-01-22T21:34:35.233Z,71.31
2019-01-22T21:35:35.234Z,71.28
2019-01-22T21:36:35.216Z,71.00
2019-01-22T21:37:35.239Z,71.53
2019-01-22T21:38:35.207Z,71.53
2019-01-22T21:39:35.188Z,71.73
2019-01-22T21:40:35.210Z,71.42
2019-01-22T21:41:35.163Z,71.63
2019-01-22T21:42:35.155Z,71.95
2019-01-22T21:43:35.213Z,71.73
2019-01-22T21:44:35.130Z,72.37
2019-01-22T21:45:35.120Z,72.05
2019-01-22T21:46:35.114Z,71.11
2019-01-22T21:47:35.094Z,71.21
2019-01-22T21:48:35.088Z,71.42
2019-01-22T21:49:35.100Z,71.84
2019-01-22T21:50:35.060Z,71.84
2019-01-22T21:51:35.053Z,71.53
2019-01-22T21:52:35.053Z,71.08
2019-01-22T21:53:35.034Z,71.11
2019-01-22T21:54:35.066Z,71.84
2019-01-22T21:55:35.015Z,71.84
2019-01-22T21:56:35.081Z,72.05
2019-01-22T21:57:34.999Z,71.73
2019-01-22T21:58:34.985Z,71.63
2019-01-22T21:59:34.972Z,71.84
2019-01-22T22:00:34.955Z,71.42
2019-01-22T22:01:34.947Z,72.05
2019-01-22T22:02:35.059Z,71.77
2019-01-22T22:03:34.928Z,72.61
2019-01-22T22:04:34.921Z,72.61
2019-01-22T22:05:34.926Z,73.49
2019-01-22T22:06:34.924Z,73.14
2019-01-22T22:07:34.971Z,73.80
2019-01-22T22:08:34.982Z,73.66
2019-01-22T22:09:34.960Z,73.70
2019-01-22T22:10:34.934Z,74.43
2019-01-22T22:11:35.147Z,73.59
2019-01-22T22:12:34.879Z,73.91
2019-01-22T22:13:34.891Z,73.59
2019-01-22T22:14:34.938Z,73.17
2019-01-22T22:15:34.853Z,73.03
2019-01-22T22:16:34.864Z,72.92
2019-01-22T22:17:34.956Z,72.61
2019-01-22T22:18:34.875Z,72.86
2019-01-22T22:19:34.754Z,72.75
2019-01-22T22:20:34.743Z,72.86
2019-01-22T22:21:34.729Z,72.75
2019-01-22T22:22:34.742Z,73.66
2019-01-22T22:23:34.710Z,73.91
2019-01-22T22:24:35.403Z,74.54
2019-01-22T22:25:34.694Z,74.01
2019-01-22T22:26:34.689Z,73.80
2019-01-22T22:27:35.416Z,74.01
2019-01-22T22:28:34.687Z,73.56
2019-01-22T22:29:34.653Z,73.46
2019-01-22T22:30:34.645Z,72.50
2019-01-22T22:31:34.642Z,72.19
2019-01-22T22:32:35.985Z,72.40
2019-01-22T22:33:34.605Z,73.07
2019-01-22T22:34:34.594Z,73.73
2019-01-22T22:35:34.585Z,73.52
2019-01-22T22:36:34.577Z,73.52
2019-01-22T22:37:34.717Z,73.41
2019-01-22T22:38:34.549Z,74.26
2019-01-22T22:39:34.541Z,74.33
2019-01-22T22:40:34.529Z,74.12
2019-01-22T22:41:34.519Z,74.37
2019-01-22T22:42:34.517Z,74.12
2019-01-22T22:43:34.538Z,73.41
2019-01-22T22:44:34.484Z,74.22
2019-01-22T22:45:34.521Z,73.38